This is the latest recevied weather packets stored in our database for station/object OM6ACB-6. If no packets are shown the sender has not sent any weather packets the latest 1 day(s).
| Time | Temp. | Humidity | Pressure | Rain* | Wind** | Luminosity | Snow |
|---|---|---|---|---|---|---|---|
| 1778011506 | 17.78° C | 24% | 1013.1 hPa | 0 mm | 1.79 m/s, 270° | - | - |
| 1778010906 | 17.78° C | 24% | 1013.1 hPa | 0 mm | 1.79 m/s, 270° | - | - |
| 1778010306 | 17.78° C | 24% | 1013.1 hPa | 0 mm | 1.79 m/s, 270° | - | - |
| 1778009706 | 17.78° C | 24% | 1013.1 hPa | 0 mm | 1.79 m/s, 270° | - | - |
| 1778009105 | 17.78° C | 24% | 1013.1 hPa | 0 mm | 1.79 m/s, 270° | - | - |
| 1778008505 | 17.78° C | 24% | 1013 hPa | 0 mm | 1.79 m/s, 270° | - | - |
| 1778007905 | 17.78° C | 24% | 1012.9 hPa | 0 mm | 1.79 m/s, 270° | - | - |
| 1778007304 | 17.78° C | 24% | 1012.7 hPa | 0 mm | 1.79 m/s, 270° | - | - |
| 1778006704 | 17.78° C | 24% | 1012.6 hPa | 0 mm | 1.79 m/s, 270° | - | - |
| 1778006104 | 17.78° C | 24% | 1012.5 hPa | 0 mm | 1.79 m/s, 270° | - | - |
| 1778005504 | 17.78° C | 24% | 1012.4 hPa | 0 mm | 0.45 m/s, 270° | - | - |
| 1778004903 | 20.56° C | 22% | 1012.8 hPa | 0 mm | 0 m/s | - | - |
| 1778004303 | 20.56° C | 22% | 1012.8 hPa | 0 mm | 0 m/s | - | - |
| 1778003703 | 20.56° C | 22% | 1012.9 hPa | 0 mm | 0 m/s | - | - |
| 1778003102 | 20.56° C | 22% | 1012.8 hPa | 0 mm | 0.45 m/s, 270° | - | - |
| 1778002502 | 20.56° C | 22% | 1012.8 hPa | 0 mm | 1.79 m/s, 173° | - | - |
| 1778001902 | 20.56° C | 22% | 1013 hPa | 0 mm | 1.34 m/s, 238° | - | - |
| 1778001302 | 21.11° C | 22% | 1013.1 hPa | 0 mm | 1.34 m/s, 208° | - | - |
| 1778000701 | 21.11° C | 22% | 1013.2 hPa | 0 mm | 1.34 m/s, 240° | - | - |
| 1778000101 | 21.67° C | 22% | 1013.3 hPa | 0 mm | 1.79 m/s, 254° | - | - |
| 1777999501 | 22.22° C | 22% | 1013.3 hPa | 0 mm | 1.79 m/s, 250° | - | - |
| 1777998900 | 24.44° C | 20% | 1013.7 hPa | 0 mm | 3.13 m/s, 240° | - | - |
| 1777998300 | 23.89° C | 20% | 1013.8 hPa | 0 mm | 2.24 m/s, 295° | - | - |
| 1777997700 | 25° C | 20% | 1013.9 hPa | 0 mm | 1.79 m/s, 223° | - | - |
| 1777997099 | 25.56° C | 20% | 1014 hPa | 0 mm | 2.68 m/s, 171° | - | - |
* Rain latest hour (hover to see other rain measurements)
** Current wind speed in m/s (hover to see current wind gust speed)